sensor_id;sensor_type;location;lat;lon;timestamp;P1;durP1;ratioP1;P2;durP2;ratioP2
19889;SDS011;10107;51.198;6.824;2022-11-15T00:02:45;13.63;;;8.45;;
19889;SDS011;10107;51.198;6.824;2022-11-15T00:07:05;12.68;;;8.57;;
19889;SDS011;10107;51.198;6.824;2022-11-15T00:11:26;11.90;;;7.95;;
19889;SDS011;10107;51.198;6.824;2022-11-15T00:15:48;11.77;;;8.40;;
19889;SDS011;10107;51.198;6.824;2022-11-15T00:20:08;13.63;;;8.50;;
19889;SDS011;10107;51.198;6.824;2022-11-15T00:24:30;11.05;;;8.02;;
19889;SDS011;10107;51.198;6.824;2022-11-15T00:28:51;12.52;;;8.35;;
19889;SDS011;10107;51.198;6.824;2022-11-15T00:33:12;12.10;;;8.40;;
19889;SDS011;10107;51.198;6.824;2022-11-15T00:37:32;13.43;;;8.73;;
19889;SDS011;10107;51.198;6.824;2022-11-15T00:41:53;15.35;;;8.52;;
19889;SDS011;10107;51.198;6.824;2022-11-15T00:46:13;13.18;;;8.25;;
19889;SDS011;10107;51.198;6.824;2022-11-15T00:50:35;11.48;;;8.00;;
19889;SDS011;10107;51.198;6.824;2022-11-15T00:54:55;12.25;;;7.55;;
19889;SDS011;10107;51.198;6.824;2022-11-15T00:59:15;11.55;;;8.07;;
19889;SDS011;10107;51.198;6.824;2022-11-15T01:03:35;11.57;;;7.28;;
19889;SDS011;10107;51.198;6.824;2022-11-15T01:07:58;10.32;;;7.28;;
19889;SDS011;10107;51.198;6.824;2022-11-15T01:12:18;11.80;;;8.50;;
19889;SDS011;10107;51.198;6.824;2022-11-15T01:16:39;13.13;;;8.02;;
19889;SDS011;10107;51.198;6.824;2022-11-15T01:20:59;12.70;;;8.38;;
19889;SDS011;10107;51.198;6.824;2022-11-15T01:25:20;12.57;;;7.75;;
19889;SDS011;10107;51.198;6.824;2022-11-15T01:29:40;9.80;;;6.60;;
19889;SDS011;10107;51.198;6.824;2022-11-15T01:34:01;9.13;;;7.18;;
19889;SDS011;10107;51.198;6.824;2022-11-15T01:38:22;10.73;;;7.38;;
19889;SDS011;10107;51.198;6.824;2022-11-15T01:42:44;10.95;;;7.80;;
19889;SDS011;10107;51.198;6.824;2022-11-15T01:47:05;11.63;;;7.07;;
19889;SDS011;10107;51.198;6.824;2022-11-15T01:51:29;12.30;;;7.93;;
19889;SDS011;10107;51.198;6.824;2022-11-15T01:55:51;8.98;;;6.65;;
19889;SDS011;10107;51.198;6.824;2022-11-15T02:00:14;13.88;;;9.10;;
19889;SDS011;10107;51.198;6.824;2022-11-15T02:04:36;11.05;;;7.93;;
19889;SDS011;10107;51.198;6.824;2022-11-15T02:13:21;11.43;;;8.18;;
19889;SDS011;10107;51.198;6.824;2022-11-15T02:17:52;10.82;;;7.47;;
19889;SDS011;10107;51.198;6.824;2022-11-15T02:22:22;11.93;;;8.07;;
19889;SDS011;10107;51.198;6.824;2022-11-15T02:27:05;11.63;;;8.13;;
19889;SDS011;10107;51.198;6.824;2022-11-15T02:31:45;10.07;;;7.45;;
19889;SDS011;10107;51.198;6.824;2022-11-15T02:36:12;12.15;;;8.27;;
19889;SDS011;10107;51.198;6.824;2022-11-15T02:40:39;11.98;;;7.47;;
19889;SDS011;10107;51.198;6.824;2022-11-15T02:45:06;13.95;;;8.50;;
19889;SDS011;10107;51.198;6.824;2022-11-15T02:49:31;13.10;;;8.30;;
19889;SDS011;10107;51.198;6.824;2022-11-15T02:53:53;10.55;;;7.95;;
19889;SDS011;10107;51.198;6.824;2022-11-15T02:58:21;16.08;;;8.10;;
19889;SDS011;10107;51.198;6.824;2022-11-15T03:03:06;13.55;;;8.30;;
19889;SDS011;10107;51.198;6.824;2022-11-15T03:07:43;12.95;;;8.45;;
19889;SDS011;10107;51.198;6.824;2022-11-15T03:12:11;14.90;;;8.82;;
19889;SDS011;10107;51.198;6.824;2022-11-15T03:16:37;12.63;;;8.63;;
19889;SDS011;10107;51.198;6.824;2022-11-15T03:20:59;10.43;;;7.13;;
19889;SDS011;10107;51.198;6.824;2022-11-15T03:25:25;10.03;;;7.23;;
19889;SDS011;10107;51.198;6.824;2022-11-15T03:29:49;12.20;;;6.38;;
19889;SDS011;10107;51.198;6.824;2022-11-15T03:34:14;14.70;;;9.37;;
19889;SDS011;10107;51.198;6.824;2022-11-15T03:38:45;9.48;;;7.25;;
19889;SDS011;10107;51.198;6.824;2022-11-15T03:43:08;12.18;;;7.57;;
19889;SDS011;10107;51.198;6.824;2022-11-15T03:47:35;11.07;;;7.15;;
19889;SDS011;10107;51.198;6.824;2022-11-15T03:51:59;9.90;;;6.82;;
19889;SDS011;10107;51.198;6.824;2022-11-15T03:56:21;9.20;;;6.63;;
19889;SDS011;10107;51.198;6.824;2022-11-15T04:00:44;9.77;;;6.90;;
19889;SDS011;10107;51.198;6.824;2022-11-15T04:05:05;8.85;;;6.78;;
19889;SDS011;10107;51.198;6.824;2022-11-15T04:09:26;11.07;;;7.13;;
19889;SDS011;10107;51.198;6.824;2022-11-15T04:13:46;13.35;;;7.75;;
19889;SDS011;10107;51.198;6.824;2022-11-15T04:18:07;11.57;;;7.60;;
19889;SDS011;10107;51.198;6.824;2022-11-15T04:22:28;11.68;;;7.70;;
19889;SDS011;10107;51.198;6.824;2022-11-15T04:27:06;10.02;;;6.45;;
19889;SDS011;10107;51.198;6.824;2022-11-15T04:31:26;7.95;;;5.95;;
19889;SDS011;10107;51.198;6.824;2022-11-15T04:35:48;11.30;;;7.20;;
19889;SDS011;10107;51.198;6.824;2022-11-15T04:40:23;10.40;;;7.03;;
19889;SDS011;10107;51.198;6.824;2022-11-15T04:44:44;9.55;;;7.20;;
19889;SDS011;10107;51.198;6.824;2022-11-15T04:49:04;10.45;;;7.07;;
19889;SDS011;10107;51.198;6.824;2022-11-15T04:53:26;11.00;;;7.25;;
19889;SDS011;10107;51.198;6.824;2022-11-15T04:57:46;11.10;;;7.10;;
19889;SDS011;10107;51.198;6.824;2022-11-15T05:02:06;10.27;;;7.05;;
19889;SDS011;10107;51.198;6.824;2022-11-15T05:06:26;10.80;;;7.35;;
19889;SDS011;10107;51.198;6.824;2022-11-15T05:10:48;10.57;;;7.28;;
19889;SDS011;10107;51.198;6.824;2022-11-15T05:15:09;10.25;;;6.43;;
19889;SDS011;10107;51.198;6.824;2022-11-15T05:19:29;12.35;;;7.82;;
19889;SDS011;10107;51.198;6.824;2022-11-15T05:23:49;8.77;;;6.40;;
19889;SDS011;10107;51.198;6.824;2022-11-15T05:28:11;10.52;;;6.93;;
19889;SDS011;10107;51.198;6.824;2022-11-15T05:32:31;10.65;;;7.60;;
19889;SDS011;10107;51.198;6.824;2022-11-15T05:36:51;11.60;;;7.93;;
19889;SDS011;10107;51.198;6.824;2022-11-15T05:41:12;11.02;;;7.85;;
19889;SDS011;10107;51.198;6.824;2022-11-15T05:45:35;10.18;;;7.50;;
19889;SDS011;10107;51.198;6.824;2022-11-15T05:49:56;10.10;;;7.50;;
19889;SDS011;10107;51.198;6.824;2022-11-15T05:54:17;10.18;;;6.80;;
19889;SDS011;10107;51.198;6.824;2022-11-15T05:58:39;11.52;;;7.28;;
19889;SDS011;10107;51.198;6.824;2022-11-15T06:03:00;9.90;;;6.68;;
19889;SDS011;10107;51.198;6.824;2022-11-15T06:07:21;8.65;;;6.15;;
19889;SDS011;10107;51.198;6.824;2022-11-15T06:11:41;9.02;;;5.35;;
19889;SDS011;10107;51.198;6.824;2022-11-15T06:16:01;7.47;;;5.57;;
19889;SDS011;10107;51.198;6.824;2022-11-15T06:20:23;7.57;;;5.45;;
19889;SDS011;10107;51.198;6.824;2022-11-15T06:24:43;5.82;;;4.72;;
19889;SDS011;10107;51.198;6.824;2022-11-15T06:29:03;6.43;;;5.20;;
19889;SDS011;10107;51.198;6.824;2022-11-15T06:33:24;5.30;;;4.53;;
19889;SDS011;10107;51.198;6.824;2022-11-15T06:37:45;8.13;;;5.00;;
19889;SDS011;10107;51.198;6.824;2022-11-15T06:42:05;5.00;;;4.32;;
19889;SDS011;10107;51.198;6.824;2022-11-15T06:46:28;5.40;;;4.30;;
19889;SDS011;10107;51.198;6.824;2022-11-15T06:50:50;7.22;;;4.57;;
19889;SDS011;10107;51.198;6.824;2022-11-15T06:55:12;6.80;;;5.13;;
19889;SDS011;10107;51.198;6.824;2022-11-15T06:59:32;7.22;;;4.70;;
19889;SDS011;10107;51.198;6.824;2022-11-15T07:03:52;6.53;;;4.70;;
19889;SDS011;10107;51.198;6.824;2022-11-15T07:08:12;6.07;;;4.32;;
19889;SDS011;10107;51.198;6.824;2022-11-15T07:12:34;5.88;;;4.00;;
19889;SDS011;10107;51.198;6.824;2022-11-15T07:16:54;6.78;;;4.15;;
19889;SDS011;10107;51.198;6.824;2022-11-15T07:21:14;5.53;;;3.60;;
19889;SDS011;10107;51.198;6.824;2022-11-15T07:25:34;5.63;;;3.70;;
19889;SDS011;10107;51.198;6.824;2022-11-15T07:29:56;5.25;;;3.08;;
19889;SDS011;10107;51.198;6.824;2022-11-15T07:34:16;4.72;;;3.70;;
19889;SDS011;10107;51.198;6.824;2022-11-15T07:38:36;3.63;;;3.15;;
19889;SDS011;10107;51.198;6.824;2022-11-15T07:43:04;4.60;;;3.20;;
19889;SDS011;10107;51.198;6.824;2022-11-15T07:47:28;3.88;;;3.05;;
19889;SDS011;10107;51.198;6.824;2022-11-15T07:51:48;3.67;;;2.90;;
19889;SDS011;10107;51.198;6.824;2022-11-15T07:56:08;4.05;;;2.70;;
19889;SDS011;10107;51.198;6.824;2022-11-15T08:00:30;3.67;;;2.53;;
19889;SDS011;10107;51.198;6.824;2022-11-15T08:04:51;4.35;;;2.65;;
19889;SDS011;10107;51.198;6.824;2022-11-15T08:09:10;3.53;;;2.50;;
19889;SDS011;10107;51.198;6.824;2022-11-15T08:13:31;3.15;;;2.80;;
19889;SDS011;10107;51.198;6.824;2022-11-15T08:17:56;4.13;;;2.42;;
19889;SDS011;10107;51.198;6.824;2022-11-15T08:22:17;2.65;;;2.28;;
19889;SDS011;10107;51.198;6.824;2022-11-15T08:26:37;3.47;;;2.45;;
19889;SDS011;10107;51.198;6.824;2022-11-15T08:30:58;4.07;;;2.60;;
19889;SDS011;10107;51.198;6.824;2022-11-15T08:35:19;3.03;;;2.47;;
19889;SDS011;10107;51.198;6.824;2022-11-15T08:39:40;4.75;;;2.53;;
19889;SDS011;10107;51.198;6.824;2022-11-15T08:44:00;3.40;;;2.42;;
19889;SDS011;10107;51.198;6.824;2022-11-15T08:48:20;2.80;;;2.00;;
19889;SDS011;10107;51.198;6.824;2022-11-15T08:52:42;4.03;;;2.35;;
19889;SDS011;10107;51.198;6.824;2022-11-15T08:57:02;2.58;;;1.90;;
19889;SDS011;10107;51.198;6.824;2022-11-15T09:01:23;3.67;;;2.08;;
19889;SDS011;10107;51.198;6.824;2022-11-15T09:05:43;2.67;;;1.90;;
19889;SDS011;10107;51.198;6.824;2022-11-15T09:10:04;3.17;;;1.95;;
19889;SDS011;10107;51.198;6.824;2022-11-15T09:14:25;2.80;;;1.58;;
19889;SDS011;10107;51.198;6.824;2022-11-15T09:18:46;2.65;;;1.50;;
19889;SDS011;10107;51.198;6.824;2022-11-15T09:23:06;1.80;;;1.60;;
19889;SDS011;10107;51.198;6.824;2022-11-15T09:27:28;2.47;;;1.50;;
19889;SDS011;10107;51.198;6.824;2022-11-15T09:31:51;2.42;;;1.75;;
19889;SDS011;10107;51.198;6.824;2022-11-15T09:36:12;2.75;;;1.65;;
19889;SDS011;10107;51.198;6.824;2022-11-15T09:40:32;3.08;;;1.65;;
19889;SDS011;10107;51.198;6.824;2022-11-15T09:44:59;3.35;;;1.50;;
19889;SDS011;10107;51.198;6.824;2022-11-15T09:49:31;2.92;;;1.25;;
19889;SDS011;10107;51.198;6.824;2022-11-15T09:53:49;2.17;;;1.45;;
19889;SDS011;10107;51.198;6.824;2022-11-15T09:57:59;1.52;;;1.20;;
19889;SDS011;10107;51.198;6.824;2022-11-15T10:02:17;1.75;;;0.88;;
19889;SDS011;10107;51.198;6.824;2022-11-15T10:06:31;3.63;;;1.35;;
19889;SDS011;10107;51.198;6.824;2022-11-15T10:10:38;2.22;;;1.45;;
19889;SDS011;10107;51.198;6.824;2022-11-15T10:14:42;2.38;;;1.17;;
19889;SDS011;10107;51.198;6.824;2022-11-15T10:18:49;2.65;;;1.40;;
19889;SDS011;10107;51.198;6.824;2022-11-15T10:22:59;4.28;;;1.30;;
19889;SDS011;10107;51.198;6.824;2022-11-15T10:27:04;2.80;;;1.30;;
19889;SDS011;10107;51.198;6.824;2022-11-15T10:31:20;2.38;;;1.10;;
19889;SDS011;10107;51.198;6.824;2022-11-15T10:35:25;2.95;;;1.15;;
19889;SDS011;10107;51.198;6.824;2022-11-15T10:39:29;3.15;;;1.10;;
19889;SDS011;10107;51.198;6.824;2022-11-15T10:43:31;3.10;;;1.25;;
19889;SDS011;10107;51.198;6.824;2022-11-15T10:47:32;1.58;;;1.13;;
19889;SDS011;10107;51.198;6.824;2022-11-15T10:51:38;2.05;;;1.10;;
19889;SDS011;10107;51.198;6.824;2022-11-15T10:55:46;2.47;;;1.02;;
19889;SDS011;10107;51.198;6.824;2022-11-15T10:59:51;3.45;;;1.10;;
19889;SDS011;10107;51.198;6.824;2022-11-15T11:03:58;2.00;;;1.10;;
19889;SDS011;10107;51.198;6.824;2022-11-15T11:08:04;2.40;;;0.98;;
19889;SDS011;10107;51.198;6.824;2022-11-15T11:12:09;1.55;;;0.98;;
19889;SDS011;10107;51.198;6.824;2022-11-15T11:16:18;3.28;;;0.90;;
19889;SDS011;10107;51.198;6.824;2022-11-15T11:20:36;2.05;;;0.82;;
19889;SDS011;10107;51.198;6.824;2022-11-15T11:24:43;1.58;;;0.80;;
19889;SDS011;10107;51.198;6.824;2022-11-15T11:28:53;3.13;;;1.00;;
19889;SDS011;10107;51.198;6.824;2022-11-15T11:33:07;3.30;;;0.82;;
19889;SDS011;10107;51.198;6.824;2022-11-15T11:37:17;1.65;;;0.70;;
19889;SDS011;10107;51.198;6.824;2022-11-15T11:41:41;2.30;;;0.75;;
19889;SDS011;10107;51.198;6.824;2022-11-15T11:46:10;2.25;;;0.70;;
19889;SDS011;10107;51.198;6.824;2022-11-15T11:50:21;1.70;;;0.88;;
19889;SDS011;10107;51.198;6.824;2022-11-15T11:54:29;2.53;;;0.90;;
19889;SDS011;10107;51.198;6.824;2022-11-15T11:58:40;1.25;;;0.65;;
19889;SDS011;10107;51.198;6.824;2022-11-15T12:02:44;2.72;;;0.75;;
19889;SDS011;10107;51.198;6.824;2022-11-15T12:06:51;1.35;;;0.75;;
19889;SDS011;10107;51.198;6.824;2022-11-15T12:11:00;3.55;;;0.80;;
19889;SDS011;10107;51.198;6.824;2022-11-15T12:15:12;1.08;;;0.80;;
19889;SDS011;10107;51.198;6.824;2022-11-15T12:19:17;2.35;;;0.70;;
19889;SDS011;10107;51.198;6.824;2022-11-15T12:23:19;2.30;;;0.70;;
19889;SDS011;10107;51.198;6.824;2022-11-15T12:27:26;4.70;;;1.00;;
19889;SDS011;10107;51.198;6.824;2022-11-15T12:31:38;2.10;;;0.82;;
19889;SDS011;10107;51.198;6.824;2022-11-15T12:35:43;2.47;;;0.95;;
19889;SDS011;10107;51.198;6.824;2022-11-15T12:40:03;2.88;;;0.80;;
19889;SDS011;10107;51.198;6.824;2022-11-15T12:48:55;3.33;;;1.00;;
19889;SDS011;10107;51.198;6.824;2022-11-15T12:57:38;1.60;;;0.70;;
19889;SDS011;10107;51.198;6.824;2022-11-15T13:01:59;2.22;;;0.80;;
19889;SDS011;10107;51.198;6.824;2022-11-15T13:06:07;1.58;;;0.73;;
19889;SDS011;10107;51.198;6.824;2022-11-15T13:10:31;2.60;;;0.90;;
19889;SDS011;10107;51.198;6.824;2022-11-15T13:14:44;3.33;;;0.98;;
19889;SDS011;10107;51.198;6.824;2022-11-15T13:18:52;1.45;;;0.90;;
19889;SDS011;10107;51.198;6.824;2022-11-15T13:23:00;1.48;;;0.98;;
19889;SDS011;10107;51.198;6.824;2022-11-15T13:27:10;2.50;;;0.90;;
19889;SDS011;10107;51.198;6.824;2022-11-15T13:31:19;1.65;;;0.90;;
19889;SDS011;10107;51.198;6.824;2022-11-15T13:35:30;2.28;;;1.20;;
19889;SDS011;10107;51.198;6.824;2022-11-15T13:39:36;2.38;;;1.20;;
19889;SDS011;10107;51.198;6.824;2022-11-15T13:47:40;2.45;;;1.00;;
19889;SDS011;10107;51.198;6.824;2022-11-15T13:51:42;1.92;;;1.00;;
19889;SDS011;10107;51.198;6.824;2022-11-15T13:55:49;2.88;;;1.10;;
19889;SDS011;10107;51.198;6.824;2022-11-15T13:59:52;1.98;;;1.02;;
19889;SDS011;10107;51.198;6.824;2022-11-15T14:03:58;3.67;;;1.20;;
19889;SDS011;10107;51.198;6.824;2022-11-15T14:08:03;5.50;;;1.20;;
19889;SDS011;10107;51.198;6.824;2022-11-15T14:12:25;3.58;;;1.30;;
19889;SDS011;10107;51.198;6.824;2022-11-15T14:16:33;1.58;;;1.25;;
19889;SDS011;10107;51.198;6.824;2022-11-15T14:20:37;3.75;;;1.50;;
19889;SDS011;10107;51.198;6.824;2022-11-15T14:24:40;3.55;;;1.70;;
19889;SDS011;10107;51.198;6.824;2022-11-15T14:28:44;4.88;;;2.03;;
19889;SDS011;10107;51.198;6.824;2022-11-15T14:32:47;3.42;;;1.77;;
19889;SDS011;10107;51.198;6.824;2022-11-15T14:36:50;4.32;;;1.70;;
19889;SDS011;10107;51.198;6.824;2022-11-15T14:40:51;3.72;;;1.88;;
19889;SDS011;10107;51.198;6.824;2022-11-15T14:44:57;3.05;;;2.05;;
19889;SDS011;10107;51.198;6.824;2022-11-15T14:48:59;4.88;;;2.40;;
19889;SDS011;10107;51.198;6.824;2022-11-15T14:53:00;5.75;;;2.30;;
19889;SDS011;10107;51.198;6.824;2022-11-15T14:57:03;3.15;;;2.10;;
19889;SDS011;10107;51.198;6.824;2022-11-15T15:01:10;3.22;;;2.20;;
19889;SDS011;10107;51.198;6.824;2022-11-15T15:05:15;3.75;;;2.20;;
19889;SDS011;10107;51.198;6.824;2022-11-15T15:09:19;4.55;;;2.08;;
19889;SDS011;10107;51.198;6.824;2022-11-15T15:13:22;3.60;;;2.40;;
19889;SDS011;10107;51.198;6.824;2022-11-15T15:17:26;3.13;;;2.45;;
19889;SDS011;10107;51.198;6.824;2022-11-15T15:21:28;3.17;;;2.63;;
19889;SDS011;10107;51.198;6.824;2022-11-15T15:25:31;3.35;;;2.33;;
19889;SDS011;10107;51.198;6.824;2022-11-15T15:29:34;4.93;;;2.10;;
19889;SDS011;10107;51.198;6.824;2022-11-15T15:33:37;3.47;;;2.33;;
19889;SDS011;10107;51.198;6.824;2022-11-15T15:37:39;3.63;;;2.20;;
19889;SDS011;10107;51.198;6.824;2022-11-15T15:41:42;3.67;;;1.93;;
19889;SDS011;10107;51.198;6.824;2022-11-15T15:45:44;6.30;;;2.42;;
19889;SDS011;10107;51.198;6.824;2022-11-15T15:49:47;4.72;;;2.15;;
19889;SDS011;10107;51.198;6.824;2022-11-15T15:53:49;4.72;;;2.15;;
19889;SDS011;10107;51.198;6.824;2022-11-15T15:57:52;4.22;;;2.20;;
19889;SDS011;10107;51.198;6.824;2022-11-15T16:01:54;2.85;;;1.90;;
19889;SDS011;10107;51.198;6.824;2022-11-15T16:05:57;2.83;;;2.08;;
19889;SDS011;10107;51.198;6.824;2022-11-15T16:09:59;4.70;;;2.10;;
19889;SDS011;10107;51.198;6.824;2022-11-15T16:14:01;3.13;;;1.83;;
19889;SDS011;10107;51.198;6.824;2022-11-15T16:18:03;2.95;;;2.10;;
19889;SDS011;10107;51.198;6.824;2022-11-15T16:22:09;2.13;;;1.65;;
19889;SDS011;10107;51.198;6.824;2022-11-15T16:26:13;3.17;;;1.90;;
19889;SDS011;10107;51.198;6.824;2022-11-15T16:34:26;3.58;;;2.35;;
19889;SDS011;10107;51.198;6.824;2022-11-15T16:38:29;6.28;;;2.80;;
19889;SDS011;10107;51.198;6.824;2022-11-15T16:42:31;4.72;;;2.33;;
19889;SDS011;10107;51.198;6.824;2022-11-15T16:46:33;5.18;;;2.40;;
19889;SDS011;10107;51.198;6.824;2022-11-15T16:50:35;3.55;;;2.60;;
19889;SDS011;10107;51.198;6.824;2022-11-15T16:54:44;2.80;;;2.50;;
19889;SDS011;10107;51.198;6.824;2022-11-15T16:58:45;3.70;;;2.30;;
19889;SDS011;10107;51.198;6.824;2022-11-15T17:02:47;3.25;;;2.30;;
19889;SDS011;10107;51.198;6.824;2022-11-15T17:06:50;3.50;;;2.40;;
19889;SDS011;10107;51.198;6.824;2022-11-15T17:10:53;3.72;;;2.40;;
19889;SDS011;10107;51.198;6.824;2022-11-15T17:14:55;2.83;;;2.27;;
19889;SDS011;10107;51.198;6.824;2022-11-15T17:18:56;2.50;;;2.15;;
19889;SDS011;10107;51.198;6.824;2022-11-15T17:22:58;3.08;;;2.20;;
19889;SDS011;10107;51.198;6.824;2022-11-15T17:27:01;3.20;;;2.67;;
19889;SDS011;10107;51.198;6.824;2022-11-15T17:31:05;2.97;;;2.07;;
19889;SDS011;10107;51.198;6.824;2022-11-15T17:35:08;3.88;;;2.70;;
19889;SDS011;10107;51.198;6.824;2022-11-15T17:43:15;2.83;;;2.40;;
19889;SDS011;10107;51.198;6.824;2022-11-15T17:47:17;2.33;;;1.75;;
19889;SDS011;10107;51.198;6.824;2022-11-15T17:51:18;3.30;;;2.13;;
19889;SDS011;10107;51.198;6.824;2022-11-15T17:55:21;2.92;;;2.25;;
19889;SDS011;10107;51.198;6.824;2022-11-15T17:59:24;4.65;;;2.60;;
19889;SDS011;10107;51.198;6.824;2022-11-15T18:03:25;2.53;;;2.00;;
19889;SDS011;10107;51.198;6.824;2022-11-15T18:07:27;5.25;;;2.33;;
19889;SDS011;10107;51.198;6.824;2022-11-15T18:11:29;3.88;;;2.15;;
19889;SDS011;10107;51.198;6.824;2022-11-15T18:15:33;3.08;;;2.10;;
19889;SDS011;10107;51.198;6.824;2022-11-15T18:19:35;4.17;;;1.87;;
19889;SDS011;10107;51.198;6.824;2022-11-15T18:23:37;2.97;;;2.40;;
19889;SDS011;10107;51.198;6.824;2022-11-15T18:27:39;5.10;;;3.20;;
19889;SDS011;10107;51.198;6.824;2022-11-15T18:31:42;3.47;;;2.60;;
19889;SDS011;10107;51.198;6.824;2022-11-15T18:35:44;3.72;;;2.72;;
19889;SDS011;10107;51.198;6.824;2022-11-15T18:39:46;5.60;;;3.20;;
19889;SDS011;10107;51.198;6.824;2022-11-15T18:43:47;4.15;;;3.25;;
19889;SDS011;10107;51.198;6.824;2022-11-15T18:47:51;4.00;;;2.90;;
19889;SDS011;10107;51.198;6.824;2022-11-15T18:51:53;4.40;;;3.00;;
19889;SDS011;10107;51.198;6.824;2022-11-15T18:55:58;6.80;;;3.40;;
19889;SDS011;10107;51.198;6.824;2022-11-15T19:00:02;5.93;;;3.53;;
19889;SDS011;10107;51.198;6.824;2022-11-15T19:04:06;5.13;;;3.35;;
19889;SDS011;10107;51.198;6.824;2022-11-15T19:08:09;5.07;;;3.50;;
19889;SDS011;10107;51.198;6.824;2022-11-15T19:12:11;5.13;;;3.92;;
19889;SDS011;10107;51.198;6.824;2022-11-15T19:16:13;5.80;;;4.20;;
19889;SDS011;10107;51.198;6.824;2022-11-15T19:20:17;5.87;;;3.30;;
19889;SDS011;10107;51.198;6.824;2022-11-15T19:24:19;5.57;;;4.03;;
19889;SDS011;10107;51.198;6.824;2022-11-15T19:28:21;5.68;;;4.07;;
19889;SDS011;10107;51.198;6.824;2022-11-15T19:32:22;5.88;;;4.35;;
19889;SDS011;10107;51.198;6.824;2022-11-15T19:36:26;5.78;;;4.88;;
19889;SDS011;10107;51.198;6.824;2022-11-15T19:40:31;7.03;;;5.28;;
19889;SDS011;10107;51.198;6.824;2022-11-15T19:44:33;9.20;;;5.68;;
19889;SDS011;10107;51.198;6.824;2022-11-15T19:48:35;7.63;;;5.47;;
19889;SDS011;10107;51.198;6.824;2022-11-15T19:52:38;7.15;;;5.47;;
19889;SDS011;10107;51.198;6.824;2022-11-15T19:56:40;7.05;;;5.10;;
19889;SDS011;10107;51.198;6.824;2022-11-15T20:00:42;6.10;;;4.97;;
19889;SDS011;10107;51.198;6.824;2022-11-15T20:04:44;6.28;;;5.03;;
19889;SDS011;10107;51.198;6.824;2022-11-15T20:08:47;9.23;;;5.43;;
19889;SDS011;10107;51.198;6.824;2022-11-15T20:12:49;8.10;;;5.78;;
19889;SDS011;10107;51.198;6.824;2022-11-15T20:16:50;7.55;;;5.43;;
19889;SDS011;10107;51.198;6.824;2022-11-15T20:20:52;6.88;;;5.32;;
19889;SDS011;10107;51.198;6.824;2022-11-15T20:24:57;7.10;;;5.90;;
19889;SDS011;10107;51.198;6.824;2022-11-15T20:28:58;5.20;;;4.30;;
19889;SDS011;10107;51.198;6.824;2022-11-15T20:33:02;7.80;;;6.10;;
19889;SDS011;10107;51.198;6.824;2022-11-15T20:37:04;8.70;;;5.88;;
19889;SDS011;10107;51.198;6.824;2022-11-15T20:41:07;8.60;;;6.63;;
19889;SDS011;10107;51.198;6.824;2022-11-15T20:45:09;5.23;;;3.77;;
19889;SDS011;10107;51.198;6.824;2022-11-15T20:49:10;7.53;;;5.55;;
19889;SDS011;10107;51.198;6.824;2022-11-15T20:53:13;8.15;;;6.03;;
19889;SDS011;10107;51.198;6.824;2022-11-15T20:57:17;7.40;;;6.18;;
19889;SDS011;10107;51.198;6.824;2022-11-15T21:01:19;7.87;;;5.70;;
19889;SDS011;10107;51.198;6.824;2022-11-15T21:05:22;8.50;;;5.82;;
19889;SDS011;10107;51.198;6.824;2022-11-15T21:09:24;7.65;;;5.93;;
19889;SDS011;10107;51.198;6.824;2022-11-15T21:13:45;7.47;;;5.60;;
19889;SDS011;10107;51.198;6.824;2022-11-15T21:17:48;8.63;;;5.88;;
19889;SDS011;10107;51.198;6.824;2022-11-15T21:21:49;6.65;;;5.47;;
19889;SDS011;10107;51.198;6.824;2022-11-15T21:25:51;7.75;;;6.00;;
19889;SDS011;10107;51.198;6.824;2022-11-15T21:29:54;7.53;;;5.97;;
19889;SDS011;10107;51.198;6.824;2022-11-15T21:33:56;8.57;;;6.03;;
19889;SDS011;10107;51.198;6.824;2022-11-15T21:37:58;7.35;;;6.03;;
19889;SDS011;10107;51.198;6.824;2022-11-15T21:41:59;9.20;;;6.32;;
19889;SDS011;10107;51.198;6.824;2022-11-15T21:46:03;7.30;;;5.55;;
19889;SDS011;10107;51.198;6.824;2022-11-15T21:50:06;8.80;;;5.70;;
19889;SDS011;10107;51.198;6.824;2022-11-15T21:54:09;8.73;;;6.50;;
19889;SDS011;10107;51.198;6.824;2022-11-15T21:58:10;7.25;;;5.80;;
19889;SDS011;10107;51.198;6.824;2022-11-15T22:02:14;6.50;;;5.78;;
19889;SDS011;10107;51.198;6.824;2022-11-15T22:06:15;8.67;;;5.63;;
19889;SDS011;10107;51.198;6.824;2022-11-15T22:10:17;7.25;;;5.63;;
19889;SDS011;10107;51.198;6.824;2022-11-15T22:14:19;8.65;;;5.93;;
19889;SDS011;10107;51.198;6.824;2022-11-15T22:18:22;8.38;;;5.68;;
19889;SDS011;10107;51.198;6.824;2022-11-15T22:22:25;6.07;;;5.07;;
19889;SDS011;10107;51.198;6.824;2022-11-15T22:26:26;7.72;;;4.68;;
19889;SDS011;10107;51.198;6.824;2022-11-15T22:30:28;7.80;;;5.53;;
19889;SDS011;10107;51.198;6.824;2022-11-15T22:34:31;6.82;;;4.93;;
19889;SDS011;10107;51.198;6.824;2022-11-15T22:38:33;4.32;;;3.45;;
19889;SDS011;10107;51.198;6.824;2022-11-15T22:42:35;6.60;;;4.70;;
19889;SDS011;10107;51.198;6.824;2022-11-15T22:46:37;8.40;;;5.78;;
19889;SDS011;10107;51.198;6.824;2022-11-15T22:50:40;7.70;;;4.95;;
19889;SDS011;10107;51.198;6.824;2022-11-15T22:54:42;6.97;;;5.15;;
19889;SDS011;10107;51.198;6.824;2022-11-15T22:58:44;7.55;;;5.40;;
19889;SDS011;10107;51.198;6.824;2022-11-15T23:02:46;6.10;;;5.07;;
19889;SDS011;10107;51.198;6.824;2022-11-15T23:06:49;7.65;;;5.28;;
19889;SDS011;10107;51.198;6.824;2022-11-15T23:10:51;7.55;;;5.07;;
19889;SDS011;10107;51.198;6.824;2022-11-15T23:15:10;6.03;;;4.50;;
19889;SDS011;10107;51.198;6.824;2022-11-15T23:19:12;6.68;;;5.20;;
19889;SDS011;10107;51.198;6.824;2022-11-15T23:23:15;7.05;;;4.82;;
19889;SDS011;10107;51.198;6.824;2022-11-15T23:27:16;4.70;;;3.20;;
19889;SDS011;10107;51.198;6.824;2022-11-15T23:31:19;6.27;;;5.07;;
19889;SDS011;10107;51.198;6.824;2022-11-15T23:35:39;7.10;;;5.05;;
19889;SDS011;10107;51.198;6.824;2022-11-15T23:39:42;8.13;;;5.82;;
19889;SDS011;10107;51.198;6.824;2022-11-15T23:43:43;7.55;;;5.20;;
19889;SDS011;10107;51.198;6.824;2022-11-15T23:47:45;6.47;;;5.10;;
19889;SDS011;10107;51.198;6.824;2022-11-15T23:51:47;6.75;;;5.45;;
19889;SDS011;10107;51.198;6.824;2022-11-15T23:55:54;7.05;;;5.30;;
19889;SDS011;10107;51.198;6.824;2022-11-15T23:59:57;9.30;;;5.32;;
